Time;durP1;ratioP1;P1;durP2;ratioP2;P2;SDS_P1;SDS_P2;PMS_P1;PMS_P2;Temp;Humidity;BMP_temperature;BMP_pressure;BME280_temperature;BME280_humidity;BME280_pressure;Samples;Min_cycle;Max_cycle;Signal;HPM_P1;HPM_P2
2022/08/22 00:00:13;;;;;;;1.33;1.00;;;;;;;;;;4519516;28;20037;-61
2022/08/22 00:02:31;;;;;;;1.13;0.90;;;;;;;;;;4503973;28;20815;-61
2022/08/22 00:04:46;;;;;;;1.40;1.20;;;;;;;;;;4504994;28;20121;-61
2022/08/22 00:07:03;;;;;;;1.48;1.00;;;;;;;;;;4520239;28;20104;-60
2022/08/22 00:09:20;;;;;;;1.30;0.90;;;;;;;;;;4508499;28;20046;-61
2022/08/22 00:11:48;;;;;;;1.52;1.05;;;;;;;;;;4521940;28;20040;-61
2022/08/22 00:14:20;;;;;;;1.60;0.90;;;;;;;;;;4521269;28;20102;-62
2022/08/22 00:16:33;;;;;;;1.20;0.90;;;;;;;;;;4503167;28;20050;-61
2022/08/22 00:18:48;;;;;;;1.70;0.95;;;;;;;;;;4518716;28;20076;-61
2022/08/22 00:21:20;;;;;;;0.93;0.90;;;;;;;;;;4502463;28;20178;-61
2022/08/22 00:23:40;;;;;;;1.60;0.90;;;;;;;;;;4501253;28;20034;-60
2022/08/22 00:25:50;;;;;;;2.17;1.10;;;;;;;;;;4519278;28;20033;-61
2022/08/22 00:28:01;;;;;;;0.98;0.90;;;;;;;;;;4521211;28;20518;-62
2022/08/22 00:30:14;;;;;;;1.30;1.00;;;;;;;;;;4521137;28;20034;-61
2022/08/22 00:32:40;;;;;;;1.77;1.10;;;;;;;;;;4523271;28;20126;-61
2022/08/22 00:35:07;;;;;;;0.90;0.80;;;;;;;;;;4507009;28;20021;-61
2022/08/22 00:37:50;;;;;;;1.60;0.90;;;;;;;;;;4507589;28;20049;-61
2022/08/22 00:40:24;;;;;;;1.38;1.20;;;;;;;;;;4478174;28;20045;-61
2022/08/22 00:42:40;;;;;;;0.93;0.90;;;;;;;;;;4506630;28;20044;-62
2022/08/22 00:45:16;;;;;;;2.22;1.30;;;;;;;;;;4523389;28;20160;-61
2022/08/22 00:47:45;;;;;;;1.65;1.02;;;;;;;;;;4525539;28;21026;-61
2022/08/22 00:50:27;;;;;;;1.83;1.10;;;;;;;;;;4523342;28;20098;-60
2022/08/22 00:52:38;;;;;;;1.70;1.10;;;;;;;;;;4521738;28;20618;-61
2022/08/22 00:55:11;;;;;;;1.17;1.08;;;;;;;;;;4523510;28;20510;-61
2022/08/22 00:57:50;;;;;;;1.08;0.98;;;;;;;;;;4505512;28;20274;-61
2022/08/22 01:00:13;;;;;;;1.02;0.90;;;;;;;;;;4454474;28;20093;-61
2022/08/22 01:02:57;;;;;;;1.35;1.25;;;;;;;;;;4522665;28;20044;-61
2022/08/22 01:05:23;;;;;;;1.55;0.95;;;;;;;;;;4523494;28;20093;-61
2022/08/22 01:07:45;;;;;;;1.92;1.10;;;;;;;;;;4522015;28;20647;-61
2022/08/22 01:10:21;;;;;;;1.10;1.00;;;;;;;;;;4520977;28;20651;-61
2022/08/22 01:12:40;;;;;;;1.10;1.00;;;;;;;;;;4523655;28;20041;-61
2022/08/22 01:14:55;;;;;;;1.50;1.00;;;;;;;;;;4522460;28;20144;-62
2022/08/22 01:17:18;;;;;;;1.30;1.00;;;;;;;;;;4509598;28;21123;-61
2022/08/22 01:19:42;;;;;;;1.58;0.95;;;;;;;;;;4479050;28;20093;-61
2022/08/22 01:22:17;;;;;;;0.98;0.90;;;;;;;;;;4504323;28;20033;-61
2022/08/22 01:27:31;;;;;;;2.10;1.00;;;;;;;;;;4508153;28;20037;-61
2022/08/22 01:29:45;;;;;;;1.58;1.05;;;;;;;;;;4487510;28;20033;-61
2022/08/22 01:32:19;;;;;;;1.45;1.02;;;;;;;;;;4522890;28;20594;-61
2022/08/22 01:34:50;;;;;;;1.35;1.13;;;;;;;;;;4503761;28;20044;-61
2022/08/22 01:37:22;;;;;;;1.48;1.08;;;;;;;;;;4491000;28;20364;-61
2022/08/22 01:39:53;;;;;;;1.98;1.08;;;;;;;;;;4520320;28;20036;-61
2022/08/22 01:42:19;;;;;;;1.50;1.13;;;;;;;;;;4522558;28;20153;-61
2022/08/22 01:44:39;;;;;;;1.98;1.13;;;;;;;;;;4522291;28;20033;-61
2022/08/22 01:46:57;;;;;;;1.17;1.08;;;;;;;;;;4505948;28;20108;-61
2022/08/22 01:49:10;;;;;;;1.20;1.10;;;;;;;;;;4521689;28;20526;-61
2022/08/22 01:51:27;;;;;;;1.70;1.10;;;;;;;;;;4522307;28;20031;-61
2022/08/22 01:54:00;;;;;;;1.92;1.10;;;;;;;;;;4522822;28;20041;-61
2022/08/22 01:56:13;;;;;;;0.80;0.80;;;;;;;;;;4504427;28;20049;-61
2022/08/22 01:58:28;;;;;;;1.45;1.10;;;;;;;;;;4521320;28;20036;-61
2022/08/22 02:01:03;;;;;;;1.40;1.10;;;;;;;;;;4485178;28;20141;-61
2022/08/22 02:03:55;;;;;;;0.95;0.85;;;;;;;;;;4522041;28;20570;-61
2022/08/22 02:06:12;;;;;;;1.13;1.00;;;;;;;;;;4447876;28;20055;-61
2022/08/22 02:08:29;;;;;;;1.48;1.10;;;;;;;;;;4498882;28;20037;-61
2022/08/22 02:10:49;;;;;;;1.45;0.95;;;;;;;;;;4504381;28;20041;-61
2022/08/22 02:13:33;;;;;;;1.23;0.80;;;;;;;;;;4505388;28;20041;-61
2022/08/22 02:15:53;;;;;;;0.80;0.80;;;;;;;;;;4507206;28;20048;-60
2022/08/22 02:18:03;;;;;;;2.47;1.20;;;;;;;;;;4504181;28;21061;-61
2022/08/22 02:20:23;;;;;;;1.13;0.90;;;;;;;;;;4522567;28;20041;-61
2022/08/22 02:22:42;;;;;;;1.67;1.10;;;;;;;;;;4503842;28;20057;-60
2022/08/22 02:25:08;;;;;;;1.73;0.93;;;;;;;;;;4522210;28;20131;-61
2022/08/22 02:27:23;;;;;;;1.08;0.98;;;;;;;;;;4523776;28;20042;-61
2022/08/22 02:30:00;;;;;;;1.20;0.90;;;;;;;;;;4502930;28;20033;-61
2022/08/22 02:32:34;;;;;;;1.20;1.00;;;;;;;;;;4520184;28;20041;-60
2022/08/22 02:34:51;;;;;;;1.40;1.17;;;;;;;;;;4503203;28;20033;-60
2022/08/22 02:37:12;;;;;;;1.40;1.00;;;;;;;;;;4504526;28;20116;-61
2022/08/22 02:39:37;;;;;;;1.38;1.20;;;;;;;;;;4502919;28;20152;-61
2022/08/22 02:41:54;;;;;;;1.88;1.08;;;;;;;;;;4504368;28;20042;-61
2022/08/22 02:44:28;;;;;;;2.17;1.20;;;;;;;;;;4520945;28;20594;-61
2022/08/22 02:47:03;;;;;;;1.42;1.10;;;;;;;;;;4509828;28;20034;-61
2022/08/22 02:49:39;;;;;;;1.15;1.02;;;;;;;;;;4520434;28;20610;-60
2022/08/22 02:52:11;;;;;;;1.45;1.02;;;;;;;;;;4502485;28;20038;-62
2022/08/22 02:54:27;;;;;;;2.00;1.10;;;;;;;;;;4522211;28;20041;-61
2022/08/22 02:56:49;;;;;;;1.23;1.13;;;;;;;;;;4504588;28;20233;-61
2022/08/22 02:59:23;;;;;;;1.13;0.80;;;;;;;;;;4522302;28;20037;-61
2022/08/22 03:01:54;;;;;;;1.10;1.00;;;;;;;;;;4501523;28;20973;-61
2022/08/22 03:04:31;;;;;;;1.02;0.93;;;;;;;;;;4476889;28;20034;-61
2022/08/22 03:06:45;;;;;;;1.13;0.90;;;;;;;;;;4492370;28;20056;-61
2022/08/22 03:09:26;;;;;;;1.35;0.90;;;;;;;;;;4519621;28;20032;-61
2022/08/22 03:11:37;;;;;;;2.72;1.00;;;;;;;;;;4512072;28;20080;-61
2022/08/22 03:14:07;;;;;;;1.38;0.90;;;;;;;;;;4506188;28;20046;-61
2022/08/22 03:16:29;;;;;;;1.70;0.98;;;;;;;;;;4503760;28;20632;-61
2022/08/22 03:18:48;;;;;;;1.50;1.00;;;;;;;;;;4520976;28;20033;-61
2022/08/22 03:21:14;;;;;;;1.10;1.00;;;;;;;;;;4502087;28;20042;-61
2022/08/22 03:23:37;;;;;;;1.58;1.10;;;;;;;;;;4503485;28;20516;-60
2022/08/22 03:25:50;;;;;;;1.73;1.10;;;;;;;;;;4505635;28;20046;-61
2022/08/22 03:28:14;;;;;;;1.20;0.90;;;;;;;;;;4502657;28;20153;-61
2022/08/22 03:30:40;;;;;;;1.65;0.90;;;;;;;;;;4493207;28;20038;-61
2022/08/22 03:32:58;;;;;;;1.10;0.85;;;;;;;;;;4503085;28;20034;-61
2022/08/22 03:35:10;;;;;;;0.70;0.70;;;;;;;;;;4519741;28;20032;-61
2022/08/22 03:37:26;;;;;;;1.20;0.90;;;;;;;;;;4503205;28;20034;-61
2022/08/22 03:39:46;;;;;;;1.10;1.00;;;;;;;;;;4500694;28;20038;-61
2022/08/22 03:42:09;;;;;;;1.38;1.00;;;;;;;;;;4518890;28;20033;-61
2022/08/22 03:44:38;;;;;;;1.10;0.93;;;;;;;;;;4503740;28;20127;-61
2022/08/22 03:47:07;;;;;;;1.02;0.93;;;;;;;;;;4520804;28;20101;-61
2022/08/22 03:49:37;;;;;;;1.10;1.00;;;;;;;;;;4520122;28;20216;-61
2022/08/22 03:52:20;;;;;;;1.20;1.10;;;;;;;;;;4519646;28;20037;-62
2022/08/22 03:54:54;;;;;;;1.00;0.90;;;;;;;;;;4503312;28;21018;-61
2022/08/22 03:57:23;;;;;;;2.03;1.00;;;;;;;;;;4519352;28;20123;-61
2022/08/22 04:00:00;;;;;;;1.38;1.00;;;;;;;;;;4519549;28;20053;-61
2022/08/22 04:02:17;;;;;;;2.90;1.15;;;;;;;;;;4520116;28;20041;-61
2022/08/22 04:04:51;;;;;;;1.33;1.00;;;;;;;;;;4518587;28;20029;-61
2022/08/22 04:07:14;;;;;;;1.20;1.10;;;;;;;;;;4518694;28;20072;-61
2022/08/22 04:10:02;;;;;;;1.90;1.20;;;;;;;;;;4523055;28;20033;-61
2022/08/22 04:12:32;;;;;;;2.00;1.10;;;;;;;;;;4518667;28;20038;-61
2022/08/22 04:15:00;;;;;;;1.13;1.02;;;;;;;;;;4519868;28;20030;-62
2022/08/22 04:17:20;;;;;;;1.10;1.00;;;;;;;;;;4521726;28;20467;-61
2022/08/22 04:19:52;;;;;;;1.42;1.13;;;;;;;;;;4491628;28;20055;-61
2022/08/22 04:22:29;;;;;;;1.38;1.10;;;;;;;;;;4520530;28;20041;-61
2022/08/22 04:24:49;;;;;;;2.40;1.17;;;;;;;;;;4505932;28;20121;-61
2022/08/22 04:27:09;;;;;;;1.67;1.08;;;;;;;;;;4522524;28;20033;-62
2022/08/22 04:29:21;;;;;;;1.42;1.00;;;;;;;;;;4506318;28;20101;-61
2022/08/22 04:31:35;;;;;;;1.13;1.02;;;;;;;;;;4501671;28;20034;-61
2022/08/22 04:34:07;;;;;;;1.42;1.02;;;;;;;;;;4522242;28;20826;-61
2022/08/22 04:36:34;;;;;;;2.03;0.98;;;;;;;;;;4517910;28;21122;-61
2022/08/22 04:38:46;;;;;;;;;;;;;;;;;;4506251;28;20048;-61
2022/08/22 04:41:11;;;;;;;1.20;0.90;;;;;;;;;;4502339;28;19917;-61
2022/08/22 04:43:27;;;;;;;1.70;1.20;;;;;;;;;;4519639;28;20037;-61
2022/08/22 04:45:49;;;;;;;1.20;1.10;;;;;;;;;;4503031;28;20104;-61
2022/08/22 04:48:05;;;;;;;1.67;0.93;;;;;;;;;;4526081;28;20095;-61
2022/08/22 04:50:32;;;;;;;1.10;1.00;;;;;;;;;;4501594;28;20037;-61
2022/08/22 04:52:55;;;;;;;1.60;1.02;;;;;;;;;;4501773;28;20034;-61
2022/08/22 04:55:32;;;;;;;1.60;1.02;;;;;;;;;;4518605;28;20033;-61
2022/08/22 04:58:07;;;;;;;1.20;0.90;;;;;;;;;;4505505;28;20046;-60
2022/08/22 05:00:18;;;;;;;1.42;1.33;;;;;;;;;;4519233;28;20038;-61
2022/08/22 05:02:29;;;;;;;1.10;1.00;;;;;;;;;;4519537;28;20570;-61
2022/08/22 05:04:43;;;;;;;1.85;1.20;;;;;;;;;;4504458;28;20060;-61
2022/08/22 05:07:08;;;;;;;1.13;1.02;;;;;;;;;;4501872;28;20034;-61
2022/08/22 05:09:24;;;;;;;1.50;1.10;;;;;;;;;;4504505;28;20037;-61
2022/08/22 05:11:35;;;;;;;1.48;1.17;;;;;;;;;;4501409;28;20017;-61
2022/08/22 05:13:57;;;;;;;1.50;1.13;;;;;;;;;;4502704;28;20062;-61
2022/08/22 05:16:15;;;;;;;1.88;1.10;;;;;;;;;;4519171;28;20228;-63
2022/08/22 05:18:29;;;;;;;1.85;1.17;;;;;;;;;;4505965;28;21133;-61
2022/08/22 05:20:41;;;;;;;1.50;1.00;;;;;;;;;;4524601;28;20629;-61
2022/08/22 05:22:57;;;;;;;1.30;1.20;;;;;;;;;;4503149;28;20125;-62
2022/08/22 05:25:11;;;;;;;1.30;1.20;;;;;;;;;;4501104;28;20075;-61
2022/08/22 05:27:24;;;;;;;1.25;1.13;;;;;;;;;;4505504;28;20276;-61
2022/08/22 05:29:38;;;;;;;1.55;1.08;;;;;;;;;;4505794;28;20038;-61
2022/08/22 05:31:57;;;;;;;2.33;1.27;;;;;;;;;;4522585;28;20063;-61
2022/08/22 05:34:12;;;;;;;1.50;1.17;;;;;;;;;;4505827;28;20037;-61
2022/08/22 05:36:28;;;;;;;1.65;1.15;;;;;;;;;;4522744;28;20041;-61
2022/08/22 05:38:44;;;;;;;1.80;1.15;;;;;;;;;;4521761;28;20065;-62
2022/08/22 05:41:04;;;;;;;;;;;;;;;;;;4505435;28;20559;-60
2022/08/22 05:43:15;;;;;;;1.48;1.00;;;;;;;;;;4503295;28;19917;-61
2022/08/22 05:45:27;;;;;;;1.23;1.10;;;;;;;;;;4504021;28;20034;-61
2022/08/22 05:48:03;;;;;;;1.50;1.20;;;;;;;;;;4524301;28;20533;-62
2022/08/22 05:50:31;;;;;;;2.10;1.38;;;;;;;;;;4496845;28;20157;-62
2022/08/22 05:53:15;;;;;;;1.45;1.17;;;;;;;;;;4505551;28;20033;-62
2022/08/22 05:55:31;;;;;;;1.45;1.13;;;;;;;;;;4523199;28;20586;-62
2022/08/22 05:57:47;;;;;;;1.92;1.40;;;;;;;;;;4510903;28;20139;-62
2022/08/22 06:00:18;;;;;;;1.98;1.40;;;;;;;;;;4507800;28;20038;-62
2022/08/22 06:02:52;;;;;;;2.13;1.42;;;;;;;;;;4504843;28;20052;-62
2022/08/22 06:05:05;;;;;;;1.65;1.30;;;;;;;;;;4512041;28;20040;-62
2022/08/22 06:07:30;;;;;;;2.30;1.50;;;;;;;;;;4507332;28;20109;-62
2022/08/22 06:09:47;;;;;;;2.65;1.40;;;;;;;;;;4505529;28;20034;-62
2022/08/22 06:11:59;;;;;;;1.55;1.30;;;;;;;;;;4524123;28;20038;-62
2022/08/22 06:14:30;;;;;;;2.00;1.60;;;;;;;;;;4490968;28;20042;-62
2022/08/22 06:16:47;;;;;;;1.30;1.20;;;;;;;;;;4486454;28;20129;-62
2022/08/22 06:18:58;;;;;;;1.73;1.45;;;;;;;;;;4502571;28;21251;-61
2022/08/22 06:21:16;;;;;;;2.75;1.60;;;;;;;;;;4503891;28;20034;-62
2022/08/22 06:23:59;;;;;;;2.20;1.48;;;;;;;;;;4521299;28;20045;-62
2022/08/22 06:26:10;;;;;;;2.28;1.60;;;;;;;;;;4473409;28;20925;-62
2022/08/22 06:28:24;;;;;;;1.88;1.60;;;;;;;;;;4504633;28;20121;-62
2022/08/22 06:30:36;;;;;;;2.08;1.60;;;;;;;;;;4520648;28;20801;-62
2022/08/22 06:32:51;;;;;;;2.03;1.50;;;;;;;;;;4494227;28;20526;-62
2022/08/22 06:35:23;;;;;;;1.95;1.50;;;;;;;;;;4521505;28;20048;-62
2022/08/22 06:37:38;;;;;;;2.60;1.80;;;;;;;;;;4521158;28;20204;-62
2022/08/22 06:39:51;;;;;;;2.33;1.58;;;;;;;;;;4503068;28;20038;-61
2022/08/22 06:42:04;;;;;;;1.90;1.50;;;;;;;;;;4502281;28;20038;-62
2022/08/22 06:44:19;;;;;;;2.40;1.67;;;;;;;;;;4521883;28;20042;-62
2022/08/22 06:46:34;;;;;;;2.42;1.88;;;;;;;;;;4504768;28;20073;-62
2022/08/22 06:48:45;;;;;;;2.17;1.83;;;;;;;;;;4504491;28;20033;-62
2022/08/22 06:50:57;;;;;;;1.50;1.20;;;;;;;;;;4505909;28;20127;-62
2022/08/22 06:53:18;;;;;;;2.53;1.70;;;;;;;;;;4506060;28;21235;-62
2022/08/22 06:55:29;;;;;;;1.75;1.60;;;;;;;;;;4505129;28;20033;-63
2022/08/22 06:58:05;;;;;;;1.83;1.42;;;;;;;;;;4520887;28;20174;-63
2022/08/22 07:00:16;;;;;;;2.75;1.90;;;;;;;;;;4518465;28;20092;-62
2022/08/22 07:02:36;;;;;;;2.30;1.88;;;;;;;;;;4503064;28;20030;-63
2022/08/22 07:04:48;;;;;;;2.75;2.00;;;;;;;;;;4495122;28;20140;-62
2022/08/22 07:07:00;;;;;;;2.58;1.80;;;;;;;;;;4504604;28;20676;-63
2022/08/22 07:09:30;;;;;;;2.28;1.70;;;;;;;;;;4505714;28;20045;-62
2022/08/22 07:11:41;;;;;;;2.47;1.88;;;;;;;;;;4519464;28;20033;-62
2022/08/22 07:14:03;;;;;;;2.72;1.75;;;;;;;;;;4508340;28;20022;-62
2022/08/22 07:16:14;;;;;;;2.25;1.73;;;;;;;;;;4521687;28;21214;-63
2022/08/22 07:18:26;;;;;;;3.05;2.20;;;;;;;;;;4503272;28;20034;-63
2022/08/22 07:20:43;;;;;;;2.20;1.92;;;;;;;;;;4521582;28;20672;-62
2022/08/22 07:23:05;;;;;;;2.03;1.60;;;;;;;;;;4497213;28;20579;-63
2022/08/22 07:25:15;;;;;;;2.13;1.65;;;;;;;;;;4520098;28;20520;-63
2022/08/22 07:27:36;;;;;;;2.63;1.83;;;;;;;;;;4489293;28;20660;-63
2022/08/22 07:29:49;;;;;;;2.88;2.17;;;;;;;;;;4522114;28;20037;-62
2022/08/22 07:32:06;;;;;;;2.00;1.70;;;;;;;;;;4498954;28;20191;-63
2022/08/22 07:34:31;;;;;;;1.80;1.38;;;;;;;;;;4520104;28;20088;-63
2022/08/22 07:36:56;;;;;;;2.95;2.30;;;;;;;;;;4487474;28;20123;-62
2022/08/22 07:39:08;;;;;;;3.13;2.03;;;;;;;;;;4522171;28;20048;-63
2022/08/22 07:41:25;;;;;;;2.42;1.80;;;;;;;;;;4518244;28;20030;-63
2022/08/22 07:43:49;;;;;;;;;;;;;;;;;;4487800;28;20134;-63
2022/08/22 07:46:12;;;;;;;2.75;2.05;;;;;;;;;;4502560;28;19956;-62
2022/08/22 07:48:32;;;;;;;3.88;2.03;;;;;;;;;;4522048;28;20822;-63
2022/08/22 07:51:00;;;;;;;2.35;1.90;;;;;;;;;;4506720;28;20045;-63
2022/08/22 07:53:42;;;;;;;3.28;2.10;;;;;;;;;;4521191;28;20636;-62
2022/08/22 07:55:54;;;;;;;2.90;2.05;;;;;;;;;;4503497;28;20630;-63
2022/08/22 07:58:06;;;;;;;2.70;1.70;;;;;;;;;;4505922;28;20068;-61
2022/08/22 08:00:19;;;;;;;2.40;1.75;;;;;;;;;;4504332;28;20047;-61
2022/08/22 08:02:30;;;;;;;2.80;1.60;;;;;;;;;;4505170;28;20044;-61
2022/08/22 08:04:41;;;;;;;2.58;1.80;;;;;;;;;;4503197;28;20037;-60
2022/08/22 08:06:55;;;;;;;2.70;2.00;;;;;;;;;;4522192;28;20033;-60
2022/08/22 08:09:13;;;;;;;3.13;2.00;;;;;;;;;;4523630;28;20057;-61
2022/08/22 08:11:26;;;;;;;2.33;1.80;;;;;;;;;;4520619;28;20037;-61
2022/08/22 08:13:59;;;;;;;2.30;2.00;;;;;;;;;;4517871;28;20521;-63
2022/08/22 08:16:18;;;;;;;2.78;2.20;;;;;;;;;;4519139;28;20053;-63
2022/08/22 08:18:32;;;;;;;2.05;1.80;;;;;;;;;;4505522;28;20578;-63
2022/08/22 08:20:43;;;;;;;2.55;1.90;;;;;;;;;;4502530;28;20030;-63
2022/08/22 08:22:55;;;;;;;3.63;2.03;;;;;;;;;;4501182;28;20035;-63
2022/08/22 08:25:07;;;;;;;2.35;1.90;;;;;;;;;;4519467;28;20037;-62
2022/08/22 08:29:55;;;;;;;2.88;1.70;;;;;;;;;;4504698;28;20164;-63
2022/08/22 08:32:08;;;;;;;3.05;1.90;;;;;;;;;;4501204;28;21056;-63
2022/08/22 08:34:24;;;;;;;2.33;1.70;;;;;;;;;;4505268;28;20076;-63
2022/08/22 08:36:38;;;;;;;3.70;1.80;;;;;;;;;;4501916;28;20042;-63
2022/08/22 08:39:13;;;;;;;2.83;1.70;;;;;;;;;;4520087;28;20081;-64
2022/08/22 08:41:53;;;;;;;2.47;1.50;;;;;;;;;;4507741;28;20053;-63
2022/08/22 08:44:16;;;;;;;2.78;1.80;;;;;;;;;;4465158;28;20051;-63
2022/08/22 08:47:01;;;;;;;2.05;1.55;;;;;;;;;;4520300;28;20045;-63
2022/08/22 08:49:17;;;;;;;2.38;1.70;;;;;;;;;;4505452;28;20632;-64
2022/08/22 08:51:43;;;;;;;2.15;1.48;;;;;;;;;;4522730;28;20037;-63
2022/08/22 08:54:05;;;;;;;1.88;1.45;;;;;;;;;;4521475;28;21324;-63
2022/08/22 08:56:31;;;;;;;3.25;1.73;;;;;;;;;;4523687;28;20715;-63
2022/08/22 08:58:59;;;;;;;3.20;1.70;;;;;;;;;;4503938;28;20153;-64
2022/08/22 09:01:46;;;;;;;2.45;1.77;;;;;;;;;;4524179;28;20036;-63
2022/08/22 09:04:15;;;;;;;2.40;1.40;;;;;;;;;;4509127;28;20035;-63
2022/08/22 09:07:00;;;;;;;2.03;1.50;;;;;;;;;;4525253;28;21058;-63
2022/08/22 09:09:37;;;;;;;1.92;1.55;;;;;;;;;;4483273;28;20073;-63
2022/08/22 09:12:25;;;;;;;2.70;1.73;;;;;;;;;;4512808;28;20038;-63
2022/08/22 09:14:55;;;;;;;2.35;1.60;;;;;;;;;;4523558;28;20042;-63
2022/08/22 09:17:30;;;;;;;1.63;1.40;;;;;;;;;;4523828;28;20046;-64
2022/08/22 09:19:47;;;;;;;1.75;1.40;;;;;;;;;;4504903;28;20831;-63
2022/08/22 09:22:01;;;;;;;2.55;1.70;;;;;;;;;;4504966;28;21129;-63
2022/08/22 09:24:14;;;;;;;1.73;1.58;;;;;;;;;;4524760;28;20030;-63
2022/08/22 09:26:51;;;;;;;2.22;1.67;;;;;;;;;;4524886;28;20061;-63
2022/08/22 09:29:33;;;;;;;3.05;1.80;;;;;;;;;;4506455;28;20093;-63
2022/08/22 09:31:51;;;;;;;2.05;1.60;;;;;;;;;;4523432;28;20033;-65
2022/08/22 09:34:19;;;;;;;1.95;1.58;;;;;;;;;;4506995;28;20171;-63
2022/08/22 09:36:39;;;;;;;3.42;1.88;;;;;;;;;;4505267;28;20045;-63
2022/08/22 09:38:57;;;;;;;2.55;1.88;;;;;;;;;;4510965;28;20026;-63
2022/08/22 09:41:37;;;;;;;2.50;2.00;;;;;;;;;;4521213;28;20175;-62
2022/08/22 09:44:01;;;;;;;2.25;1.90;;;;;;;;;;4522820;28;20092;-63
2022/08/22 09:46:19;;;;;;;3.47;2.40;;;;;;;;;;4522793;28;20038;-63
2022/08/22 09:48:38;;;;;;;3.83;2.60;;;;;;;;;;4520088;28;20477;-63
2022/08/22 09:51:06;;;;;;;3.75;2.60;;;;;;;;;;4478500;28;20039;-63
2022/08/22 09:53:55;;;;;;;4.25;2.67;;;;;;;;;;4504377;28;20104;-63
2022/08/22 09:56:15;;;;;;;3.78;2.60;;;;;;;;;;4502271;28;20053;-63
2022/08/22 09:58:36;;;;;;;3.38;2.38;;;;;;;;;;4505727;28;20037;-64
2022/08/22 10:01:33;;;;;;;3.90;2.40;;;;;;;;;;4504524;28;20030;-64
2022/08/22 10:04:18;;;;;;;3.63;2.30;;;;;;;;;;4463053;28;20089;-64
2022/08/22 10:06:40;;;;;;;4.35;2.55;;;;;;;;;;4506787;28;20042;-66
2022/08/22 10:09:03;;;;;;;4.32;2.58;;;;;;;;;;4523939;28;20208;-65
2022/08/22 10:11:26;;;;;;;2.90;2.40;;;;;;;;;;4524029;28;20109;-67
2022/08/22 10:13:40;;;;;;;3.42;2.50;;;;;;;;;;4505703;28;21018;-64
2022/08/22 10:16:01;;;;;;;3.38;2.38;;;;;;;;;;4504083;28;20030;-65
2022/08/22 10:18:18;;;;;;;3.38;2.47;;;;;;;;;;4504979;28;20038;-64
2022/08/22 10:20:34;;;;;;;4.30;2.13;;;;;;;;;;4520862;28;20022;-64
2022/08/22 10:23:04;;;;;;;3.20;2.17;;;;;;;;;;4505898;28;20037;-64
2022/08/22 10:25:35;;;;;;;3.50;2.20;;;;;;;;;;4480636;28;20174;-64
2022/08/22 10:27:59;;;;;;;2.72;2.13;;;;;;;;;;4504490;28;20973;-64
2022/08/22 10:30:13;;;;;;;3.38;2.03;;;;;;;;;;4505082;28;21106;-64
2022/08/22 10:32:33;;;;;;;3.15;1.80;;;;;;;;;;4509291;28;20041;-65
2022/08/22 10:34:47;;;;;;;3.20;1.92;;;;;;;;;;4521788;28;20037;-64
2022/08/22 10:37:14;;;;;;;2.38;1.80;;;;;;;;;;4505031;28;20827;-64
2022/08/22 10:39:29;;;;;;;2.22;1.90;;;;;;;;;;4522157;28;20044;-64
2022/08/22 10:41:55;;;;;;;2.95;1.60;;;;;;;;;;4504050;28;20212;-64
2022/08/22 10:44:13;;;;;;;3.10;1.92;;;;;;;;;;4494745;28;20042;-64
2022/08/22 10:46:33;;;;;;;2.33;1.85;;;;;;;;;;4507564;28;20069;-64
2022/08/22 10:48:52;;;;;;;2.05;1.60;;;;;;;;;;4521078;28;20042;-64
2022/08/22 10:51:10;;;;;;;2.10;1.70;;;;;;;;;;4478138;28;20046;-65
2022/08/22 10:53:33;;;;;;;2.92;1.80;;;;;;;;;;4505856;28;20042;-64
2022/08/22 10:55:46;;;;;;;3.38;1.80;;;;;;;;;;4507147;28;20220;-63
2022/08/22 10:58:15;;;;;;;2.75;1.85;;;;;;;;;;4521390;28;20038;-64
2022/08/22 11:00:25;;;;;;;2.20;1.65;;;;;;;;;;4504101;28;20085;-64
2022/08/22 11:02:49;;;;;;;2.15;1.63;;;;;;;;;;4522573;28;20040;-64
2022/08/22 11:05:21;;;;;;;2.63;1.90;;;;;;;;;;4507650;28;21206;-64
2022/08/22 11:07:35;;;;;;;1.95;1.67;;;;;;;;;;4522851;28;20038;-64
2022/08/22 11:09:52;;;;;;;1.63;1.50;;;;;;;;;;4522425;28;20036;-64
2022/08/22 11:12:42;;;;;;;2.38;1.98;;;;;;;;;;4502783;28;20870;-64
2022/08/22 11:15:08;;;;;;;2.42;1.65;;;;;;;;;;4505901;28;20099;-64
2022/08/22 11:17:25;;;;;;;2.95;1.67;;;;;;;;;;4522275;28;20041;-64
2022/08/22 11:19:41;;;;;;;2.03;1.55;;;;;;;;;;4504159;28;20057;-64
2022/08/22 11:22:19;;;;;;;3.30;1.50;;;;;;;;;;4520545;28;20041;-64
2022/08/22 11:24:30;;;;;;;2.05;1.50;;;;;;;;;;4504374;28;20073;-64
2022/08/22 11:26:55;;;;;;;2.05;1.50;;;;;;;;;;4523884;28;20554;-64
2022/08/22 11:29:28;;;;;;;1.80;1.50;;;;;;;;;;4523543;28;20632;-64
2022/08/22 11:32:16;;;;;;;1.90;1.48;;;;;;;;;;4506105;28;20643;-62
2022/08/22 11:34:46;;;;;;;2.03;1.52;;;;;;;;;;4501823;28;20038;-64
2022/08/22 11:37:17;;;;;;;1.80;1.48;;;;;;;;;;4519995;28;20853;-65
2022/08/22 11:39:43;;;;;;;2.08;1.40;;;;;;;;;;4505710;28;20037;-64
2022/08/22 11:42:16;;;;;;;1.50;1.40;;;;;;;;;;4507642;28;20045;-64
2022/08/22 11:44:38;;;;;;;1.90;1.38;;;;;;;;;;4521419;28;21617;-65
2022/08/22 11:46:50;;;;;;;1.70;1.30;;;;;;;;;;4505830;28;20653;-64
2022/08/22 11:49:20;;;;;;;2.13;1.40;;;;;;;;;;4511009;28;20133;-64
2022/08/22 11:51:56;;;;;;;2.03;1.40;;;;;;;;;;4521858;28;20616;-64
2022/08/22 11:54:18;;;;;;;2.38;1.35;;;;;;;;;;4510083;28;20041;-65
2022/08/22 11:56:37;;;;;;;1.92;1.40;;;;;;;;;;4523100;28;21012;-65
2022/08/22 11:59:13;;;;;;;1.65;1.30;;;;;;;;;;4502977;28;20070;-64
2022/08/22 12:01:48;;;;;;;2.38;1.30;;;;;;;;;;4502421;28;21264;-64
2022/08/22 12:04:20;;;;;;;1.73;1.40;;;;;;;;;;4510114;28;20033;-63
2022/08/22 12:07:04;;;;;;;2.42;1.40;;;;;;;;;;4519898;28;20554;-64
2022/08/22 12:09:25;;;;;;;1.77;1.45;;;;;;;;;;4520905;28;20044;-64
2022/08/22 12:11:44;;;;;;;1.58;1.20;;;;;;;;;;4520452;28;20040;-65
2022/08/22 12:14:03;;;;;;;2.97;1.20;;;;;;;;;;4519249;28;20038;-65
2022/08/22 12:16:18;;;;;;;5.57;1.67;;;;;;;;;;4521679;28;20073;-64
2022/08/22 12:18:56;;;;;;;3.80;1.50;;;;;;;;;;4519767;28;20055;-65
2022/08/22 12:21:16;;;;;;;6.30;1.80;;;;;;;;;;4519653;28;20577;-65
2022/08/22 12:23:47;;;;;;;3.10;1.50;;;;;;;;;;4518154;28;20528;-65
2022/08/22 12:26:12;;;;;;;2.97;1.25;;;;;;;;;;4524501;28;20037;-64
2022/08/22 12:28:30;;;;;;;5.22;1.60;;;;;;;;;;4505676;28;20046;-65
2022/08/22 12:31:05;;;;;;;4.13;1.40;;;;;;;;;;4507177;28;20049;-64
2022/08/22 12:33:40;;;;;;;4.05;1.42;;;;;;;;;;4525561;28;20674;-64
2022/08/22 12:36:17;;;;;;;3.38;1.33;;;;;;;;;;4507670;28;20029;-64
2022/08/22 12:38:54;;;;;;;4.07;1.40;;;;;;;;;;4512935;28;20046;-65
2022/08/22 12:41:20;;;;;;;2.42;1.20;;;;;;;;;;4526313;28;20590;-65
2022/08/22 12:43:35;;;;;;;4.18;1.50;;;;;;;;;;4506206;28;20037;-65
2022/08/22 12:45:54;;;;;;;3.47;1.50;;;;;;;;;;4525916;28;20029;-65
2022/08/22 12:48:14;;;;;;;2.65;1.23;;;;;;;;;;4524650;28;20595;-65
2022/08/22 12:50:56;;;;;;;2.35;1.20;;;;;;;;;;4522157;28;20040;-65
2022/08/22 12:53:17;;;;;;;1.98;1.20;;;;;;;;;;4506273;28;20144;-65
2022/08/22 12:55:54;;;;;;;2.60;1.40;;;;;;;;;;4523308;28;20128;-64
2022/08/22 12:58:29;;;;;;;1.40;1.10;;;;;;;;;;4514268;28;20062;-65
2022/08/22 13:00:44;;;;;;;5.82;1.75;;;;;;;;;;4508695;28;20045;-65
2022/08/22 13:03:08;;;;;;;3.67;1.30;;;;;;;;;;4491112;28;20644;-65
2022/08/22 13:05:24;;;;;;;3.40;1.40;;;;;;;;;;4524518;28;20570;-64
2022/08/22 13:07:37;;;;;;;2.10;1.20;;;;;;;;;;4522665;28;20195;-65
2022/08/22 13:09:56;;;;;;;4.45;1.30;;;;;;;;;;4506046;28;20168;-65
2022/08/22 13:12:32;;;;;;;5.13;1.88;;;;;;;;;;4505234;28;20034;-65
2022/08/22 13:14:45;;;;;;;3.00;1.27;;;;;;;;;;4505364;28;20038;-65
2022/08/22 13:17:01;;;;;;;2.70;1.30;;;;;;;;;;4507020;28;20196;-65
2022/08/22 13:19:21;;;;;;;2.67;1.30;;;;;;;;;;4521500;28;20741;-65
2022/08/22 13:21:42;;;;;;;2.47;1.10;;;;;;;;;;4492637;28;20038;-66
2022/08/22 13:23:55;;;;;;;3.45;1.20;;;;;;;;;;4490341;28;20043;-65
2022/08/22 13:26:17;;;;;;;2.28;1.20;;;;;;;;;;4504781;28;20030;-65
2022/08/22 13:28:29;;;;;;;3.78;1.30;;;;;;;;;;4521979;28;20581;-64
2022/08/22 13:30:41;;;;;;;3.00;1.30;;;;;;;;;;4481655;28;20031;-65
2022/08/22 13:32:55;;;;;;;2.03;1.38;;;;;;;;;;4505197;28;20037;-64
2022/08/22 13:35:08;;;;;;;1.30;1.10;;;;;;;;;;4522885;28;20141;-65
2022/08/22 13:37:23;;;;;;;2.60;1.30;;;;;;;;;;4522607;28;21258;-65
2022/08/22 13:39:40;;;;;;;2.45;1.23;;;;;;;;;;4504686;28;20053;-65
2022/08/22 13:41:58;;;;;;;2.22;1.20;;;;;;;;;;4508745;28;20582;-65
2022/08/22 13:44:11;;;;;;;3.25;1.20;;;;;;;;;;4493805;28;20034;-65
2022/08/22 13:46:28;;;;;;;4.95;1.10;;;;;;;;;;4521845;28;20175;-65
2022/08/22 13:48:45;;;;;;;2.83;1.13;;;;;;;;;;4505815;28;20743;-65
2022/08/22 13:51:04;;;;;;;2.10;1.20;;;;;;;;;;4523184;28;20030;-65
2022/08/22 13:53:31;;;;;;;1.70;0.93;;;;;;;;;;4504135;28;20578;-65
2022/08/22 13:55:45;;;;;;;2.42;1.20;;;;;;;;;;4504710;28;20043;-66
2022/08/22 13:58:00;;;;;;;2.20;1.00;;;;;;;;;;4504387;28;20789;-66
2022/08/22 14:00:56;;;;;;;1.92;1.05;;;;;;;;;;4520383;28;20045;-65
2022/08/22 14:03:15;;;;;;;2.15;1.00;;;;;;;;;;4493631;28;20037;-65
2022/08/22 14:05:32;;;;;;;2.33;1.20;;;;;;;;;;4507019;28;20033;-68
2022/08/22 14:07:55;;;;;;;2.25;1.08;;;;;;;;;;4521472;28;20663;-65
2022/08/22 14:10:10;;;;;;;1.73;1.00;;;;;;;;;;4521950;28;20045;-65
2022/08/22 14:12:33;;;;;;;2.53;1.10;;;;;;;;;;4504891;28;20042;-66
2022/08/22 14:14:46;;;;;;;1.70;1.00;;;;;;;;;;4521617;28;20651;-66
2022/08/22 14:16:58;;;;;;;2.08;1.17;;;;;;;;;;4506972;28;20614;-66
2022/08/22 14:19:11;;;;;;;2.08;1.00;;;;;;;;;;4488848;28;20938;-66
2022/08/22 14:21:28;;;;;;;2.92;1.30;;;;;;;;;;4503050;28;20172;-66